createdAt,value
2018-09-12T00:01:26.299Z,3.43
2018-09-12T00:03:55.608Z,5.93
2018-09-12T00:06:24.589Z,3.70
2018-09-12T00:08:54.213Z,2.90
2018-09-12T00:11:35.171Z,3.10
2018-09-12T00:14:04.308Z,3.33
2018-09-12T00:16:33.511Z,3.70
2018-09-12T00:19:02.512Z,2.20
2018-09-12T00:21:31.453Z,6.73
2018-09-12T00:24:00.399Z,3.53
2018-09-12T00:26:29.290Z,6.63
2018-09-12T00:28:58.327Z,6.30
2018-09-12T00:31:27.902Z,3.20
2018-09-12T00:33:56.813Z,7.27
2018-09-12T00:36:25.787Z,3.50
2018-09-12T00:38:54.798Z,3.03
2018-09-12T00:41:23.800Z,3.03
2018-09-12T00:43:54.917Z,2.73
2018-09-12T00:46:23.927Z,3.07
2018-09-12T00:48:52.954Z,3.80
2018-09-12T00:51:21.935Z,5.33
2018-09-12T00:53:50.885Z,3.00
2018-09-12T00:56:20.015Z,4.03
2018-09-12T00:58:49.126Z,3.00
2018-09-12T01:01:18.015Z,3.03
2018-09-12T01:03:47.522Z,3.13
2018-09-12T01:06:16.599Z,2.87
2018-09-12T01:08:45.509Z,2.53
2018-09-12T01:11:14.855Z,3.20
2018-09-12T01:13:43.928Z,3.77
2018-09-12T01:16:12.877Z,6.43
2018-09-12T01:18:42.031Z,3.20
2018-09-12T01:21:11.056Z,3.63
2018-09-12T01:23:40.151Z,4.60
2018-09-12T01:26:09.248Z,5.80
2018-09-12T01:28:38.134Z,4.00
2018-09-12T01:31:07.202Z,5.70
2018-09-12T01:33:36.204Z,3.03
2018-09-12T01:36:05.198Z,3.00
2018-09-12T01:38:34.237Z,4.60
2018-09-12T01:41:03.247Z,6.07
2018-09-12T01:43:32.257Z,2.70
2018-09-12T01:46:01.252Z,2.77
2018-09-12T01:48:30.277Z,2.60
2018-09-12T01:50:59.308Z,3.80
2018-09-12T01:53:28.302Z,4.20
2018-09-12T01:55:57.219Z,3.17
2018-09-12T01:58:26.239Z,5.97
2018-09-12T02:00:55.448Z,2.90
2018-09-12T02:03:24.507Z,2.87
2018-09-12T02:05:53.527Z,3.93
2018-09-12T02:08:22.517Z,3.20
2018-09-12T02:10:51.575Z,3.53
2018-09-12T02:13:20.908Z,2.53
2018-09-12T02:15:49.989Z,5.70
2018-09-12T02:18:20.142Z,4.77
2018-09-12T02:20:49.052Z,2.60
2018-09-12T02:23:18.096Z,2.70
2018-09-12T02:25:47.113Z,3.27
2018-09-12T02:28:16.121Z,3.57
2018-09-12T02:30:45.169Z,2.60
2018-09-12T02:33:14.224Z,4.37
2018-09-12T02:35:48.418Z,3.17
2018-09-12T02:38:17.580Z,2.67
2018-09-12T02:40:46.919Z,3.40
2018-09-12T02:43:16.138Z,3.10
2018-09-12T02:45:45.079Z,2.83
2018-09-12T02:48:14.038Z,4.33
2018-09-12T02:50:43.096Z,7.33
2018-09-12T02:53:13.188Z,3.77
2018-09-12T02:55:42.277Z,3.37
2018-09-12T02:58:11.226Z,5.40
2018-09-12T03:00:41.150Z,4.90
2018-09-12T03:03:10.109Z,6.60
2018-09-12T03:05:39.166Z,4.40
2018-09-12T03:08:08.257Z,3.00
2018-09-12T03:10:37.234Z,4.70
2018-09-12T03:13:06.270Z,3.23
2018-09-12T03:15:35.279Z,3.90
2018-09-12T03:18:04.297Z,3.90
2018-09-12T03:20:33.459Z,5.33
2018-09-12T03:23:02.602Z,5.20
2018-09-12T03:25:31.834Z,3.27
2018-09-12T03:28:00.843Z,5.07
2018-09-12T03:30:30.155Z,6.33
2018-09-12T03:32:59.350Z,3.93
2018-09-12T03:35:32.984Z,3.93
2018-09-12T03:38:01.926Z,4.70
2018-09-12T03:40:30.916Z,4.20
2018-09-12T03:42:59.961Z,4.13
2018-09-12T03:45:29.054Z,3.83
2018-09-12T03:47:58.600Z,2.97
2018-09-12T03:50:27.379Z,3.33
2018-09-12T03:52:56.697Z,3.50
2018-09-12T03:55:25.820Z,10.10
2018-09-12T03:57:55.067Z,5.27
2018-09-12T04:00:24.167Z,3.63
2018-09-12T04:02:53.150Z,2.90
2018-09-12T04:05:22.997Z,3.73
2018-09-12T04:07:52.381Z,3.00
2018-09-12T04:10:21.236Z,2.50
2018-09-12T04:12:50.108Z,3.30
2018-09-12T04:15:19.304Z,4.40
2018-09-12T04:17:48.261Z,4.60
2018-09-12T04:20:17.402Z,3.43
2018-09-12T04:22:46.415Z,3.50
2018-09-12T04:25:15.388Z,3.30
2018-09-12T04:27:44.557Z,4.10
2018-09-12T04:30:15.654Z,2.57
2018-09-12T04:32:44.677Z,9.13
2018-09-12T04:35:13.845Z,4.17
2018-09-12T04:37:43.056Z,6.13
2018-09-12T04:40:12.207Z,5.20
2018-09-12T04:42:42.039Z,3.37
2018-09-12T04:45:11.155Z,6.40
2018-09-12T04:47:40.239Z,4.30
2018-09-12T04:50:09.475Z,5.57
2018-09-12T04:52:38.556Z,4.23
2018-09-12T04:55:08.625Z,3.97
2018-09-12T04:57:37.516Z,3.40
2018-09-12T05:00:08.033Z,4.00
2018-09-12T05:02:37.190Z,5.83
2018-09-12T05:05:06.673Z,3.60
2018-09-12T05:07:35.593Z,4.97
2018-09-12T05:10:07.758Z,3.17
2018-09-12T05:18:56.830Z,2.97
2018-09-12T05:27:32.522Z,11.73
2018-09-12T05:51:24.657Z,7.33
2018-09-12T05:53:55.736Z,9.67
2018-09-12T05:56:25.460Z,5.50
2018-09-12T05:59:13.541Z,4.00
2018-09-12T06:01:42.494Z,4.23
2018-09-12T06:04:11.410Z,5.37
2018-09-12T06:06:40.263Z,5.50
2018-09-12T06:09:16.989Z,3.43
2018-09-12T06:11:49.276Z,6.47
2018-09-12T06:14:22.731Z,4.20
2018-09-12T06:16:54.703Z,2.70
2018-09-12T06:19:23.883Z,7.87
2018-09-12T06:21:53.473Z,3.70
2018-09-12T06:24:22.771Z,4.30
2018-09-12T06:29:25.520Z,6.10
2018-09-12T06:32:08.780Z,5.17
2018-09-12T06:34:37.867Z,17.13
2018-09-12T06:39:54.416Z,3.17
2018-09-12T06:42:29.397Z,3.90
2018-09-12T06:44:58.387Z,6.97
2018-09-12T06:47:27.449Z,4.30
2018-09-12T06:50:00.430Z,3.93
2018-09-12T06:52:29.426Z,3.27
2018-09-12T06:54:58.304Z,3.90
2018-09-12T06:57:29.523Z,3.17
2018-09-12T06:59:59.947Z,4.20
2018-09-12T07:02:36.633Z,3.27
2018-09-12T07:05:06.081Z,3.37
2018-09-12T07:07:34.837Z,5.10
2018-09-12T07:10:03.910Z,2.60
2018-09-12T07:12:55.661Z,5.20
2018-09-12T07:15:31.040Z,3.00
2018-09-12T07:18:00.141Z,5.63
2018-09-12T07:20:29.290Z,3.50
2018-09-12T07:22:58.403Z,3.13
2018-09-12T07:25:27.578Z,3.50
2018-09-12T07:27:56.966Z,4.80
2018-09-12T07:30:26.838Z,2.93
2018-09-12T07:32:55.872Z,3.70
2018-09-12T07:35:26.219Z,2.70
2018-09-12T07:37:55.399Z,2.73
2018-09-12T07:40:27.704Z,3.53
2018-09-12T07:42:58.266Z,2.87
2018-09-12T07:48:30.415Z,5.10
2018-09-12T07:50:59.344Z,5.23
2018-09-12T07:53:29.091Z,6.00
2018-09-12T07:55:58.260Z,2.70
2018-09-12T07:58:27.361Z,6.33
2018-09-12T08:01:02.720Z,3.80
2018-09-12T08:03:33.876Z,5.40
2018-09-12T08:06:02.756Z,4.13
2018-09-12T08:08:31.601Z,5.83
2018-09-12T08:11:00.405Z,4.00
2018-09-12T08:13:29.274Z,4.87
2018-09-12T08:16:00.299Z,3.33
2018-09-12T08:18:29.236Z,2.80
2018-09-12T08:21:03.838Z,3.93
2018-09-12T08:23:32.888Z,3.57
2018-09-12T08:26:01.708Z,4.93
2018-09-12T08:28:30.771Z,3.50
2018-09-12T08:56:08.220Z,5.17
2018-09-12T08:58:37.127Z,3.30
2018-09-12T09:01:05.950Z,6.23
2018-09-12T09:03:34.869Z,4.47
2018-09-12T09:06:34.680Z,4.17
2018-09-12T09:09:03.779Z,4.33
2018-09-12T09:11:33.036Z,6.33
2018-09-12T09:17:32.625Z,5.10
2018-09-12T09:23:05.299Z,7.10
2018-09-12T09:25:34.169Z,5.57
2018-09-12T09:28:02.926Z,3.80
2018-09-12T09:30:33.012Z,6.00
2018-09-12T09:33:03.384Z,5.17
2018-09-12T09:35:32.316Z,5.67
2018-09-12T09:40:59.185Z,5.30
2018-09-12T09:43:27.989Z,5.90
2018-09-12T09:45:56.933Z,6.67
2018-09-12T09:48:27.294Z,5.57
2018-09-12T09:50:56.202Z,5.40
2018-09-12T09:53:25.617Z,6.17
2018-09-12T09:55:54.322Z,6.20
2018-09-12T09:58:34.785Z,7.27
2018-09-12T10:01:08.887Z,5.17
2018-09-12T10:03:42.512Z,5.93
2018-09-12T10:06:16.808Z,7.60
2018-09-12T10:08:51.054Z,8.83
2018-09-12T10:11:19.919Z,5.60
2018-09-12T10:13:49.271Z,5.27
2018-09-12T10:16:31.261Z,5.80
2018-09-12T10:19:02.743Z,5.87
2018-09-12T10:21:31.781Z,6.53
2018-09-12T10:24:04.144Z,6.27
2018-09-12T10:26:33.091Z,5.43
2018-09-12T10:29:02.804Z,5.60
2018-09-12T10:31:31.727Z,5.20
2018-09-12T10:34:00.640Z,6.43
2018-09-12T10:36:29.400Z,8.00
2018-09-12T10:38:58.287Z,5.13
2018-09-12T10:41:27.191Z,6.93
2018-09-12T10:43:56.104Z,8.57
2018-09-12T10:46:24.898Z,5.70
2018-09-12T10:48:53.960Z,6.67
2018-09-12T10:51:31.978Z,5.90
2018-09-12T10:54:00.888Z,6.43
2018-09-12T10:56:33.794Z,5.50
2018-09-12T10:59:02.799Z,7.10
2018-09-12T11:01:31.644Z,5.50
2018-09-12T11:08:17.683Z,4.80
2018-09-12T11:11:01.689Z,5.30
2018-09-12T11:13:32.206Z,5.80
2018-09-12T11:16:01.759Z,4.63
2018-09-12T11:18:31.448Z,5.13
2018-09-12T11:21:03.563Z,4.43
2018-09-12T11:23:32.247Z,6.63
2018-09-12T11:26:02.444Z,6.87
2018-09-12T11:28:31.343Z,7.10
2018-09-12T11:31:00.039Z,6.53
2018-09-12T11:33:28.900Z,6.20
2018-09-12T11:35:57.736Z,7.37
2018-09-12T11:38:32.955Z,6.43
2018-09-12T11:41:01.766Z,5.83
2018-09-12T11:43:30.664Z,5.27
2018-09-12T11:45:59.644Z,11.53
2018-09-12T11:48:29.645Z,6.20
2018-09-12T11:50:58.433Z,5.90
2018-09-12T11:53:27.168Z,6.13
2018-09-12T11:56:04.165Z,10.00
2018-09-12T11:58:33.452Z,6.10
2018-09-12T12:01:03.441Z,6.73
2018-09-12T12:03:45.752Z,5.70
2018-09-12T12:06:14.645Z,7.87
2018-09-12T12:08:43.806Z,11.33
2018-09-12T12:11:29.564Z,7.97
2018-09-12T12:13:58.428Z,5.77
2018-09-12T12:16:27.120Z,5.67
2018-09-12T12:18:55.948Z,5.50
2018-09-12T12:21:24.577Z,7.23
2018-09-12T12:24:02.724Z,7.30
2018-09-12T12:26:35.419Z,9.10
2018-09-12T12:29:04.580Z,9.57
2018-09-12T12:31:38.180Z,7.23
2018-09-12T12:34:07.388Z,6.30
2018-09-12T12:36:36.775Z,7.23
2018-09-12T12:39:09.007Z,7.47
2018-09-12T12:41:37.806Z,8.43
2018-09-12T12:44:07.978Z,7.70
2018-09-12T12:46:55.600Z,6.33
2018-09-12T12:49:24.725Z,7.40
2018-09-12T12:51:55.510Z,5.30
2018-09-12T12:54:24.987Z,7.20
2018-09-12T12:57:00.441Z,8.27
2018-09-12T12:59:30.548Z,6.30
2018-09-12T13:02:00.108Z,5.40
2018-09-12T13:04:32.588Z,5.33
2018-09-12T13:07:01.358Z,8.50
2018-09-12T13:09:30.187Z,8.63
2018-09-12T13:15:03.231Z,5.37
2018-09-12T13:17:33.336Z,5.70
2018-09-12T13:20:03.992Z,6.70
2018-09-12T13:22:34.285Z,7.40
2018-09-12T13:25:03.350Z,5.43
2018-09-12T13:36:43.435Z,12.20
2018-09-12T13:45:31.671Z,5.53
2018-09-12T13:54:06.727Z,5.43
2018-09-12T13:56:37.315Z,5.70
2018-09-12T13:59:19.600Z,5.53
2018-09-12T14:01:59.215Z,5.50
2018-09-12T14:04:32.343Z,5.70
2018-09-12T14:07:02.431Z,5.53
2018-09-12T14:09:31.954Z,6.17
2018-09-12T14:12:04.418Z,6.30
2018-09-12T14:14:33.466Z,6.00
2018-09-12T14:17:02.532Z,6.03
2018-09-12T14:19:31.943Z,5.50
2018-09-12T14:22:01.514Z,6.40
2018-09-12T14:24:30.696Z,6.73
2018-09-12T14:27:00.181Z,8.77
2018-09-12T14:30:03.360Z,7.30
2018-09-12T14:32:32.280Z,7.57
2018-09-12T14:38:07.632Z,8.67
2018-09-12T14:44:03.577Z,14.03
2018-09-12T14:46:32.765Z,10.83
2018-09-12T14:49:03.227Z,15.40
2018-09-12T14:54:37.273Z,9.10
2018-09-12T14:57:31.156Z,11.80
2018-09-12T15:00:04.023Z,11.53
2018-09-12T15:02:33.254Z,11.90
2018-09-12T15:05:04.085Z,17.50
2018-09-12T15:07:33.160Z,10.57
2018-09-12T15:10:04.074Z,12.37
2018-09-12T15:12:33.309Z,13.90
2018-09-12T15:15:02.440Z,11.77
2018-09-12T15:17:32.321Z,15.10
2018-09-12T15:23:03.245Z,12.63
2018-09-12T15:28:23.679Z,13.13
2018-09-12T15:30:52.895Z,14.50
2018-09-12T15:33:27.929Z,13.70
2018-09-12T15:35:58.495Z,17.67
2018-09-12T15:38:27.478Z,13.00
2018-09-12T15:40:56.322Z,12.93
2018-09-12T15:43:25.150Z,13.10
2018-09-12T15:45:55.503Z,13.80
2018-09-12T15:48:24.545Z,11.20
2018-09-12T15:50:53.460Z,13.50
2018-09-12T15:53:23.487Z,14.20
2018-09-12T15:55:53.089Z,14.30
2018-09-12T15:58:24.637Z,16.53
2018-09-12T16:00:55.851Z,14.63
2018-09-12T16:03:24.790Z,16.20
2018-09-12T16:05:53.739Z,12.77
2018-09-12T16:08:22.591Z,12.13
2018-09-12T16:10:52.964Z,12.30
2018-09-12T16:13:21.957Z,16.30
2018-09-12T16:15:51.333Z,16.60
2018-09-12T16:18:20.349Z,10.40
2018-09-12T16:20:49.354Z,8.70
2018-09-12T16:23:18.513Z,13.37
2018-09-12T16:25:47.544Z,10.30
2018-09-12T16:28:16.667Z,10.90
2018-09-12T16:30:46.500Z,12.93
2018-09-12T16:33:15.523Z,10.70
2018-09-12T16:35:44.544Z,8.50
2018-09-12T16:38:13.571Z,8.73
2018-09-12T16:40:45.042Z,9.90
2018-09-12T16:43:14.071Z,8.07
2018-09-12T16:45:42.805Z,8.90
2018-09-12T16:48:11.468Z,9.33
2018-09-12T16:50:40.270Z,10.73
2018-09-12T16:53:09.277Z,11.93
2018-09-12T16:55:38.378Z,9.80
2018-09-12T16:58:07.163Z,7.73
2018-09-12T17:00:36.041Z,7.03
2018-09-12T17:03:04.809Z,6.20
2018-09-12T17:05:33.375Z,7.30
2018-09-12T17:08:02.285Z,6.63
2018-09-12T17:10:31.168Z,6.33
2018-09-12T17:12:59.780Z,5.63
2018-09-12T17:15:28.372Z,5.40
2018-09-12T17:17:57.212Z,6.03
2018-09-12T17:20:26.360Z,6.47
2018-09-12T17:22:57.448Z,4.53
2018-09-12T17:25:26.415Z,4.93
2018-09-12T17:28:00.186Z,4.47
2018-09-12T17:30:29.309Z,3.40
2018-09-12T17:32:58.715Z,4.27
2018-09-12T17:35:27.667Z,2.73
2018-09-12T17:37:56.573Z,4.20
2018-09-12T17:40:32.390Z,4.57
2018-09-12T17:43:05.650Z,3.67
2018-09-12T17:45:34.536Z,5.13
2018-09-12T17:48:03.459Z,4.33
2018-09-12T17:53:39.875Z,3.83
2018-09-12T17:56:08.694Z,3.07
2018-09-12T17:58:37.677Z,2.83
2018-09-12T18:01:06.979Z,4.13
2018-09-12T18:03:35.779Z,2.33
2018-09-12T18:06:04.700Z,2.60
2018-09-12T18:11:34.022Z,3.97
2018-09-12T18:14:03.909Z,4.60
2018-09-12T18:16:32.831Z,2.83
2018-09-12T18:19:31.807Z,3.13
2018-09-12T18:22:04.117Z,2.30
2018-09-12T18:24:33.557Z,1.70
2018-09-12T18:27:03.587Z,2.80
2018-09-12T18:29:32.486Z,4.37
2018-09-12T18:34:53.786Z,3.47
2018-09-12T18:37:22.573Z,2.97
2018-09-12T18:39:51.186Z,3.30
2018-09-12T18:42:19.978Z,4.63
2018-09-12T18:44:50.049Z,2.97
2018-09-12T18:47:18.986Z,3.30
2018-09-12T18:50:32.271Z,3.93
2018-09-12T18:53:01.288Z,6.17
2018-09-12T18:55:30.211Z,4.60
2018-09-12T18:57:59.174Z,5.60
2018-09-12T19:00:33.799Z,4.63
2018-09-12T19:03:02.736Z,5.33
2018-09-12T19:05:31.610Z,4.13
2018-09-12T19:08:04.383Z,5.50
2018-09-12T19:11:02.735Z,6.27
2018-09-12T19:13:33.378Z,9.77
2018-09-12T19:30:03.406Z,7.23
2018-09-12T19:32:36.851Z,9.03
2018-09-12T19:35:06.144Z,7.90
2018-09-12T19:37:35.563Z,11.87
2018-09-12T19:40:04.520Z,14.27
2018-09-12T19:42:33.484Z,9.07
2018-09-12T19:45:02.891Z,9.23
2018-09-12T19:47:32.309Z,8.27
2018-09-12T19:50:01.195Z,9.27
2018-09-12T19:52:30.133Z,11.73
2018-09-12T19:55:01.391Z,10.47
2018-09-12T19:57:30.997Z,10.43
2018-09-12T19:59:59.972Z,13.10
2018-09-12T20:02:31.486Z,12.63
2018-09-12T20:05:01.214Z,15.57
2018-09-12T20:07:31.648Z,17.07
2018-09-12T20:10:00.852Z,21.70
2018-09-12T20:12:29.699Z,22.13
2018-09-12T20:14:58.507Z,24.33
2018-09-12T20:17:27.349Z,26.27
2018-09-12T20:19:56.616Z,22.10
2018-09-12T20:22:25.699Z,22.60
2018-09-12T20:24:54.554Z,28.10
2018-09-12T20:27:23.375Z,29.80
2018-09-12T20:29:52.346Z,30.27
2018-09-12T20:32:21.254Z,22.13
2018-09-12T20:34:51.276Z,32.00
2018-09-12T20:37:20.620Z,26.47
2018-09-12T20:39:50.116Z,27.90
2018-09-12T20:42:19.020Z,28.73
2018-09-12T20:44:47.940Z,30.50
2018-09-12T20:47:16.971Z,28.90
2018-09-12T20:49:46.019Z,32.07
2018-09-12T20:52:14.801Z,32.07
2018-09-12T20:54:43.556Z,29.93
2018-09-12T20:57:12.451Z,25.53
2018-09-12T20:59:41.226Z,31.10
2018-09-12T21:02:10.040Z,29.17
2018-09-12T21:04:38.972Z,35.60
2018-09-12T21:07:07.831Z,34.40
2018-09-12T21:09:36.591Z,31.40
2018-09-12T21:12:07.325Z,36.40
2018-09-12T21:14:36.241Z,32.50
2018-09-12T21:17:05.563Z,30.40
2018-09-12T21:19:34.971Z,30.57
2018-09-12T21:22:03.830Z,31.60
2018-09-12T21:24:32.708Z,33.33
2018-09-12T21:27:01.547Z,30.00
2018-09-12T21:29:31.308Z,28.80
2018-09-12T21:32:00.220Z,27.87
2018-09-12T21:34:29.067Z,24.10
2018-09-12T21:36:58.004Z,25.50
2018-09-12T21:39:26.726Z,27.80
2018-09-12T21:41:55.707Z,21.47
2018-09-12T21:44:24.600Z,24.43
2018-09-12T21:46:53.306Z,21.27
2018-09-12T21:49:22.045Z,20.00
2018-09-12T21:51:51.321Z,27.20
2018-09-12T21:54:20.351Z,21.20
2018-09-12T21:56:49.918Z,23.83
2018-09-12T21:59:21.779Z,25.73
2018-09-12T22:01:50.686Z,23.57
2018-09-12T22:04:19.703Z,23.50
2018-09-12T22:06:48.538Z,18.47
2018-09-12T22:09:18.129Z,23.03
2018-09-12T22:11:51.761Z,20.73
2018-09-12T22:14:20.600Z,21.73
2018-09-12T22:16:50.433Z,23.00
2018-09-12T22:19:19.182Z,21.10
2018-09-12T22:21:47.979Z,22.67
2018-09-12T22:24:16.722Z,21.10
2018-09-12T22:26:45.519Z,19.87
2018-09-12T22:29:14.386Z,21.70
2018-09-12T22:31:43.171Z,21.40
2018-09-12T22:34:12.140Z,19.60
2018-09-12T22:36:40.896Z,24.90
2018-09-12T22:39:11.287Z,27.97
2018-09-12T22:41:40.769Z,20.93
2018-09-12T22:44:09.714Z,24.87
2018-09-12T22:46:38.616Z,21.73
2018-09-12T22:49:07.500Z,20.90
2018-09-12T22:51:36.445Z,23.00
2018-09-12T22:54:05.313Z,24.83
2018-09-12T22:56:34.006Z,22.33
2018-09-12T22:59:02.882Z,19.00
2018-09-12T23:01:31.840Z,24.13
2018-09-12T23:04:00.596Z,23.50
2018-09-12T23:06:29.408Z,24.57
2018-09-12T23:08:58.244Z,18.87
2018-09-12T23:11:27.132Z,23.50
2018-09-12T23:13:55.981Z,21.10
2018-09-12T23:16:24.799Z,25.33
2018-09-12T23:18:54.103Z,20.60
2018-09-12T23:21:22.873Z,22.43
2018-09-12T23:23:51.935Z,22.00
2018-09-12T23:26:21.613Z,22.33
2018-09-12T23:28:50.681Z,24.53
2018-09-12T23:31:19.517Z,22.73
2018-09-12T23:33:48.388Z,24.13
2018-09-12T23:36:17.274Z,23.13
2018-09-12T23:38:46.045Z,25.33
2018-09-12T23:41:14.762Z,21.30
2018-09-12T23:43:43.720Z,25.20
2018-09-12T23:46:12.364Z,22.37
2018-09-12T23:48:41.091Z,25.17
2018-09-12T23:51:09.961Z,23.20
2018-09-12T23:53:39.051Z,28.03
2018-09-12T23:56:07.838Z,23.73
2018-09-12T23:58:36.709Z,23.17
